createdAt,value
2023-05-17T00:03:27.720Z,21.44
2023-05-17T00:08:30.713Z,19.90
2023-05-17T00:13:33.759Z,18.93
2023-05-17T00:18:36.918Z,19.35
2023-05-17T00:23:40.159Z,21.36
2023-05-17T00:28:43.301Z,20.21
2023-05-17T00:33:47.708Z,18.97
2023-05-17T00:38:55.667Z,19.09
2023-05-17T00:44:01.089Z,21.26
2023-05-17T00:49:04.556Z,20.55
2023-05-17T00:54:07.843Z,19.13
2023-05-17T00:59:13.464Z,18.32
2023-05-17T01:04:17.732Z,18.84
2023-05-17T01:09:20.924Z,21.10
2023-05-17T01:14:31.543Z,20.74
2023-05-17T01:19:44.769Z,19.08
2023-05-17T01:24:53.249Z,18.08
2023-05-17T01:29:57.785Z,18.67
2023-05-17T01:35:00.934Z,20.93
2023-05-17T01:40:05.255Z,20.86
2023-05-17T01:45:26.554Z,19.23
2023-05-17T01:50:32.926Z,18.33
2023-05-17T01:55:49.216Z,19.79
2023-05-17T02:00:58.258Z,20.61
2023-05-17T02:06:01.318Z,19.03
2023-05-17T02:11:04.694Z,18.06
2023-05-17T02:16:07.716Z,18.49
2023-05-17T02:21:11.489Z,20.74
2023-05-17T02:26:14.478Z,20.84
2023-05-17T02:31:17.566Z,19.26
2023-05-17T02:36:20.614Z,18.29
2023-05-17T02:41:23.795Z,18.65
2023-05-17T02:46:27.100Z,20.79
2023-05-17T02:51:30.161Z,20.42
2023-05-17T02:56:34.231Z,18.75
2023-05-17T03:01:37.480Z,17.80
2023-05-17T03:06:41.760Z,18.49
2023-05-17T03:11:45.520Z,20.56
2023-05-17T03:16:55.264Z,19.43
2023-05-17T03:21:58.968Z,18.02
2023-05-17T03:27:02.331Z,18.77
2023-05-17T03:32:06.060Z,20.18
2023-05-17T03:37:09.284Z,18.79
2023-05-17T03:42:13.017Z,17.67
2023-05-17T03:47:16.419Z,19.36
2023-05-17T03:52:20.078Z,19.78
2023-05-17T03:57:24.602Z,18.18
2023-05-17T04:02:27.801Z,17.83
2023-05-17T04:07:31.191Z,19.96
2023-05-17T04:12:34.318Z,20.57
2023-05-17T04:17:37.781Z,18.82
2023-05-17T04:22:40.963Z,17.66
2023-05-17T04:27:47.895Z,18.14
2023-05-17T04:32:51.471Z,20.33
2023-05-17T04:37:55.569Z,19.65
2023-05-17T04:42:58.822Z,18.26
2023-05-17T04:48:02.687Z,18.42
2023-05-17T04:53:06.858Z,20.59
2023-05-17T04:58:11.449Z,19.84
2023-05-17T05:03:15.082Z,18.30
2023-05-17T05:08:18.363Z,18.53
2023-05-17T05:13:23.127Z,20.94
2023-05-17T05:18:28.912Z,20.49
2023-05-17T05:23:33.171Z,18.80
2023-05-17T05:28:37.479Z,18.21
2023-05-17T05:33:41.023Z,20.48
2023-05-17T05:38:44.339Z,21.04
2023-05-17T05:43:47.580Z,19.17
2023-05-17T05:48:51.067Z,17.92
2023-05-17T05:53:54.318Z,18.53
2023-05-17T05:58:58.077Z,21.05
2023-05-17T06:04:02.108Z,20.47
2023-05-17T06:09:07.156Z,18.95
2023-05-17T06:14:10.342Z,17.99
2023-05-17T06:19:13.477Z,18.65
2023-05-17T06:24:17.081Z,21.16
2023-05-17T06:29:20.182Z,20.26
2023-05-17T06:34:23.366Z,18.62
2023-05-17T06:39:26.448Z,18.00
2023-05-17T06:44:29.489Z,20.36
2023-05-17T06:49:32.628Z,19.80
2023-05-17T06:54:36.052Z,18.21
2023-05-17T06:59:39.225Z,18.58
2023-05-17T07:04:42.308Z,21.04
2023-05-17T07:09:45.711Z,20.52
2023-05-17T07:14:48.852Z,18.95
2023-05-17T07:19:52.390Z,17.96
2023-05-17T07:24:55.603Z,18.59
2023-05-17T07:29:58.959Z,20.56
2023-05-17T07:35:03.235Z,19.11
2023-05-17T07:40:07.015Z,17.92
2023-05-17T07:45:10.372Z,18.48
2023-05-17T07:50:14.325Z,20.89
2023-05-17T07:55:17.544Z,19.89
2023-05-17T08:00:21.400Z,18.38
2023-05-17T08:05:24.641Z,18.97
2023-05-17T08:10:28.023Z,20.22
2023-05-17T08:15:31.296Z,18.68
2023-05-17T08:20:34.649Z,17.77
2023-05-17T08:25:37.912Z,18.48
2023-05-17T08:30:41.483Z,20.85
2023-05-17T08:35:44.517Z,20.44
2023-05-17T08:41:11.549Z,18.79
2023-05-17T08:46:21.911Z,17.88
2023-05-17T08:51:25.115Z,19.60
2023-05-17T08:56:30.858Z,20.77
2023-05-17T09:01:34.267Z,19.29
2023-05-17T09:06:37.616Z,18.35
2023-05-17T09:11:41.139Z,17.69
2023-05-17T09:16:44.227Z,18.40
2023-05-17T09:21:47.967Z,20.93
2023-05-17T09:26:51.186Z,20.42
2023-05-17T09:31:54.973Z,18.96
2023-05-17T09:36:58.103Z,18.15
2023-05-17T09:42:01.411Z,17.52
2023-05-17T09:47:04.981Z,18.32
2023-05-17T09:52:08.740Z,20.82
2023-05-17T09:57:11.933Z,19.98
2023-05-17T10:02:22.431Z,18.68
2023-05-17T10:07:26.873Z,17.87
2023-05-17T10:12:33.894Z,17.15
2023-05-17T10:17:39.357Z,18.54
2023-05-17T10:22:43.044Z,19.95
2023-05-17T10:27:47.450Z,18.54
2023-05-17T10:32:51.013Z,17.60
2023-05-17T10:37:54.411Z,16.88
2023-05-17T10:42:58.861Z,17.70
2023-05-17T10:48:06.219Z,20.28
2023-05-17T10:53:12.843Z,19.73
2023-05-17T10:58:17.234Z,18.34
2023-05-17T11:03:22.852Z,17.53
2023-05-17T11:08:25.982Z,16.94
2023-05-17T11:13:29.124Z,17.56
2023-05-17T11:18:57.716Z,20.02
2023-05-17T11:24:04.119Z,18.99
2023-05-17T11:29:10.746Z,17.74
2023-05-17T11:34:13.773Z,16.99
2023-05-17T11:39:20.602Z,16.47
2023-05-17T11:44:32.127Z,17.34
2023-05-17T11:49:39.041Z,19.85
2023-05-17T11:54:43.461Z,19.13
2023-05-17T11:59:46.511Z,17.74
2023-05-17T12:04:49.521Z,16.99
2023-05-17T12:09:53.115Z,16.42
2023-05-17T12:14:56.312Z,17.20
2023-05-17T12:20:09.556Z,19.77
2023-05-17T12:25:25.539Z,19.12
2023-05-17T12:30:29.185Z,17.82
2023-05-17T12:35:33.219Z,17.07
2023-05-17T12:40:36.654Z,16.52
2023-05-17T12:45:42.407Z,17.28
2023-05-17T12:50:46.457Z,19.89
2023-05-17T12:55:49.606Z,19.46
2023-05-17T13:01:03.157Z,17.87
2023-05-17T13:06:09.615Z,16.85
2023-05-17T13:11:14.827Z,16.17
2023-05-17T13:16:18.241Z,16.87
2023-05-17T13:21:22.044Z,18.62
2023-05-17T13:26:25.109Z,17.27
2023-05-17T13:31:28.363Z,16.39
2023-05-17T13:36:35.020Z,15.78
2023-05-17T13:41:44.604Z,16.54
2023-05-17T13:46:47.621Z,18.97
2023-05-17T13:51:50.865Z,17.88
2023-05-17T13:56:55.718Z,16.58
2023-05-17T14:01:59.127Z,15.82
2023-05-17T14:07:03.823Z,15.29
2023-05-17T14:12:07.080Z,14.89
2023-05-17T14:17:10.081Z,15.85
2023-05-17T14:22:13.928Z,18.37
2023-05-17T14:27:17.171Z,17.30
2023-05-17T14:32:21.648Z,16.15
2023-05-17T14:37:25.484Z,15.47
2023-05-17T14:42:28.691Z,14.99
2023-05-17T14:47:32.355Z,14.62
2023-05-17T14:52:36.629Z,15.59
2023-05-17T14:57:40.328Z,18.12
2023-05-17T15:02:43.453Z,17.09
2023-05-17T15:07:47.611Z,15.98
2023-05-17T15:12:50.645Z,15.36
2023-05-17T15:17:54.334Z,14.91
2023-05-17T15:22:57.355Z,14.58
2023-05-17T15:28:00.330Z,15.55
2023-05-17T15:33:03.795Z,18.36
2023-05-17T15:38:07.083Z,18.46
2023-05-17T15:48:11.834Z,16.04
2023-05-17T15:53:15.030Z,15.45
2023-05-17T15:58:18.881Z,14.94
2023-05-17T16:03:21.835Z,15.77
2023-05-17T16:08:25.677Z,18.38
2023-05-17T16:13:28.905Z,17.65
2023-05-17T16:18:33.105Z,16.44
2023-05-17T16:23:37.330Z,15.73
2023-05-17T16:28:40.727Z,15.21
2023-05-17T16:33:43.870Z,14.77
2023-05-17T16:38:46.944Z,14.41
2023-05-17T16:43:50.024Z,15.29
2023-05-17T16:48:54.057Z,18.11
2023-05-17T16:53:57.067Z,18.09
2023-05-17T17:01:59.973Z,16.08
2023-05-17T17:07:03.070Z,15.45
2023-05-17T17:12:20.192Z,14.96
2023-05-17T17:17:26.719Z,15.80
2023-05-17T17:22:29.725Z,18.37
2023-05-17T17:27:32.911Z,18.30
2023-05-17T17:32:36.161Z,16.85
2023-05-17T17:37:39.247Z,15.78
2023-05-17T17:42:42.366Z,16.23
2023-05-17T17:47:45.481Z,18.66
2023-05-17T17:52:49.999Z,18.25
2023-05-17T17:57:53.059Z,16.86
2023-05-17T18:02:56.773Z,15.99
2023-05-17T18:08:00.148Z,15.36
2023-05-17T18:13:03.604Z,14.88
2023-05-17T18:18:06.778Z,15.69
2023-05-17T18:23:09.965Z,18.27
2023-05-17T18:28:13.098Z,18.22
2023-05-17T18:33:16.274Z,16.77
2023-05-17T18:38:20.160Z,15.92
2023-05-17T18:43:23.226Z,15.31
2023-05-17T18:48:26.799Z,14.84
2023-05-17T18:53:30.125Z,15.54
2023-05-17T18:58:33.126Z,18.03
2023-05-17T19:03:36.744Z,17.69
2023-05-17T19:08:40.210Z,16.37
2023-05-17T19:13:43.715Z,15.61
2023-05-17T19:18:46.824Z,15.07
2023-05-17T19:23:49.985Z,14.62
2023-05-17T19:28:53.252Z,15.31
2023-05-17T19:33:57.211Z,17.83
2023-05-17T19:39:00.448Z,18.28
2023-05-17T19:44:03.699Z,16.83
2023-05-17T19:49:06.888Z,16.00
2023-05-17T19:54:10.040Z,15.43
2023-05-17T19:59:13.225Z,14.94
2023-05-17T20:04:16.862Z,15.64
2023-05-17T20:09:19.920Z,18.06
2023-05-17T20:14:23.036Z,17.78
2023-05-17T20:19:26.524Z,16.43
2023-05-17T20:24:29.795Z,15.63
2023-05-17T20:29:32.796Z,15.03
2023-05-17T20:34:35.883Z,15.62
2023-05-17T20:39:39.744Z,18.00
2023-05-17T20:44:45.432Z,18.47
2023-05-17T20:49:50.460Z,17.00
2023-05-17T20:54:53.844Z,16.03
2023-05-17T20:59:58.093Z,15.38
2023-05-17T21:05:01.185Z,14.85
2023-05-17T21:10:04.618Z,15.50
2023-05-17T21:15:30.874Z,17.90
2023-05-17T21:20:31.439Z,18.37
2023-05-17T21:25:35.175Z,16.86
2023-05-17T21:30:38.280Z,15.91
2023-05-17T21:35:41.441Z,15.29
2023-05-17T21:40:44.486Z,14.78
2023-05-17T21:45:47.577Z,15.48
2023-05-17T21:50:50.582Z,17.86
2023-05-17T21:56:02.186Z,18.26
2023-05-17T22:01:06.880Z,16.79
2023-05-17T22:06:10.146Z,15.88
2023-05-17T22:11:14.191Z,15.29
2023-05-17T22:16:18.817Z,14.80
2023-05-17T22:21:22.695Z,15.51
2023-05-17T22:26:25.889Z,17.76
2023-05-17T22:31:29.128Z,18.21
2023-05-17T22:36:32.422Z,16.80
2023-05-17T22:41:36.209Z,15.88
2023-05-17T22:46:42.336Z,15.25
2023-05-17T22:51:45.882Z,14.74
2023-05-17T22:56:48.968Z,15.40
2023-05-17T23:01:52.113Z,17.97
2023-05-17T23:07:02.964Z,18.07
2023-05-17T23:12:06.864Z,16.59
2023-05-17T23:17:10.053Z,15.73
2023-05-17T23:22:13.180Z,15.13
2023-05-17T23:27:18.545Z,14.63
2023-05-17T23:32:22.370Z,15.23
2023-05-17T23:37:25.412Z,17.67
2023-05-17T23:42:32.003Z,18.26
2023-05-17T23:47:35.136Z,16.75
2023-05-17T23:52:39.480Z,15.82
2023-05-17T23:57:42.635Z,15.19
